Time;durP1;ratioP1;P1;durP2;ratioP2;P2;SDS_P1;SDS_P2;PMS_P1;PMS_P2;Temp;Humidity;BMP_temperature;BMP_pressure;BME280_temperature;BME280_humidity;BME280_pressure;Samples;Min_cycle;Max_cycle;Signal;HPM_P1;HPM_P2
2022/11/08 00:02:06;;;;;;;;;;;13.60;99.90;;;;;;5092498;28;19965;-23
2022/11/08 00:04:31;;;;;;;;;;;13.60;99.90;;;;;;5092081;28;20341;-23
2022/11/08 00:15:09;;;;;;;;;;;13.60;99.90;;;;;;5092345;28;20000;-23
2022/11/08 00:17:35;;;;;;;;;;;13.60;99.90;;;;;;5090872;28;19970;-23
2022/11/08 00:20:00;;;;;;;;;;;13.60;99.90;;;;;;5092300;28;20003;-23
2022/11/08 00:22:28;;;;;;;;;;;13.60;99.90;;;;;;5092083;28;19994;-23
2022/11/08 00:24:53;;;;;;;;;;;13.60;99.90;;;;;;5092083;28;20254;-23
2022/11/08 03:15:47;;;;;;;;;;;13.40;99.90;;;;;;5094181;28;19922;-23
2022/11/08 03:18:13;;;;;;;;;;;13.30;99.90;;;;;;5093740;28;19930;-23
2022/11/08 03:20:39;;;;;;;;;;;13.30;99.90;;;;;;5093925;28;19921;-22
2022/11/08 03:23:05;;;;;;;;;;;13.30;99.90;;;;;;5093193;28;20354;-23
2022/11/08 03:25:31;;;;;;;;;;;13.30;99.90;;;;;;5093546;28;19951;-23
2022/11/08 03:28:06;;;;;;;;;;;13.30;99.90;;;;;;5093387;28;19962;-22
2022/11/08 03:30:33;;;;;;;;;;;13.30;99.90;;;;;;5093310;28;20297;-23
2022/11/08 03:32:58;;;;;;;;;;;13.30;99.90;;;;;;5092896;28;19977;-22
2022/11/08 03:35:24;;;;;;;;;;;13.30;99.90;;;;;;5093333;28;20361;-22
2022/11/08 04:21:33;;;;;;;;;;;13.20;99.90;;;;;;5092356;28;19918;-22
2022/11/08 04:23:59;;;;;;;;;;;13.20;99.90;;;;;;5092033;28;19912;-22
2022/11/08 04:26:24;;;;;;;;;;;13.20;99.90;;;;;;5092388;28;20521;-23
2022/11/08 04:31:53;;;;;;;;;;;13.20;99.90;;;;;;5092305;28;19969;-23
2022/11/08 04:34:18;;;;;;;;;;;13.20;99.90;;;;;;5090616;28;20361;-23
2022/11/08 04:36:44;;;;;;;;;;;13.20;99.90;;;;;;5092225;28;19915;-23
2022/11/08 04:39:09;;;;;;;;;;;13.20;99.90;;;;;;5090777;28;19909;-23
2022/11/08 04:41:35;;;;;;;;;;;13.20;99.90;;;;;;5092000;28;19920;-23
2022/11/08 04:44:00;;;;;;;;;;;13.20;99.90;;;;;;5091591;28;19919;-23
2022/11/08 04:46:27;;;;;;;;;;;13.20;99.90;;;;;;5092018;28;20304;-23
2022/11/08 04:48:58;;;;;;;;;;;13.20;99.90;;;;;;5091932;28;19915;-23
2022/11/08 04:51:25;;;;;;;;;;;13.20;99.90;;;;;;5091852;28;20461;-23
2022/11/08 04:53:51;;;;;;;;;;;13.20;99.90;;;;;;5091402;28;19908;-23
2022/11/08 04:56:18;;;;;;;;;;;13.20;99.90;;;;;;5091863;28;20014;-23
2022/11/08 04:58:45;;;;;;;;;;;13.20;99.90;;;;;;5091757;28;20281;-23
2022/11/08 05:01:13;;;;;;;;;;;13.20;99.90;;;;;;5091697;28;20361;-23
2022/11/08 05:03:38;;;;;;;;;;;13.10;99.90;;;;;;5091396;28;20387;-23
2022/11/08 05:06:09;;;;;;;;;;;13.20;99.90;;;;;;5091796;28;19908;-23
2022/11/08 05:08:35;;;;;;;;;;;13.10;99.90;;;;;;5091702;28;19959;-23
2022/11/08 05:11:01;;;;;;;;;;;13.10;99.90;;;;;;5092013;28;20367;-23
2022/11/08 05:13:26;;;;;;;;;;;13.10;99.90;;;;;;5091606;28;20359;-23
2022/11/08 05:15:52;;;;;;;;;;;13.10;99.90;;;;;;5091604;28;19912;-23
2022/11/08 05:18:17;;;;;;;;;;;13.10;99.90;;;;;;5091585;28;19966;-23
2022/11/08 05:23:27;;;;;;;;;;;13.10;99.90;;;;;;5091198;28;19914;-23
2022/11/08 05:25:53;;;;;;;;;;;13.10;99.90;;;;;;5091876;28;19912;-23
2022/11/08 05:28:19;;;;;;;;;;;13.10;99.90;;;;;;5091794;28;20010;-23
2022/11/08 05:30:50;;;;;;;;;;;13.10;99.90;;;;;;5092858;28;19973;-23
2022/11/08 05:33:15;;;;;;;;;;;13.10;99.90;;;;;;5092502;28;19912;-23
2022/11/08 05:35:41;;;;;;;;;;;13.10;99.90;;;;;;5091479;28;19915;-23
2022/11/08 05:38:07;;;;;;;;;;;13.10;99.90;;;;;;5091597;28;19948;-23
2022/11/08 05:40:33;;;;;;;;;;;13.10;99.90;;;;;;5091396;28;19912;-23
2022/11/08 05:42:58;;;;;;;;;;;13.10;99.90;;;;;;5090938;28;19908;-23
2022/11/08 05:45:24;;;;;;;;;;;13.00;99.90;;;;;;5091428;28;20449;-23
2022/11/08 05:47:49;;;;;;;;;;;13.00;99.90;;;;;;5091377;28;19912;-23
2022/11/08 05:50:15;;;;;;;;;;;13.00;99.90;;;;;;5091356;28;19919;-23
2022/11/08 05:52:40;;;;;;;;;;;13.00;99.90;;;;;;5090838;28;20561;-23
2022/11/08 05:55:06;;;;;;;;;;;13.00;99.90;;;;;;5091243;28;19931;-23
2022/11/08 05:57:31;;;;;;;;;;;13.00;99.90;;;;;;5091360;28;19908;-23
2022/11/08 05:59:57;;;;;;;;;;;13.00;99.90;;;;;;5091331;28;20002;-23
2022/11/08 06:30:52;;;;;;;;;;;13.00;99.90;;;;;;5094259;28;19973;-23
2022/11/08 06:33:19;;;;;;;;;;;13.00;99.90;;;;;;5094004;28;19912;-22
2022/11/08 06:35:44;;;;;;;;;;;13.00;99.90;;;;;;5094548;28;20023;-23
2022/11/08 06:38:10;;;;;;;;;;;13.00;99.90;;;;;;5094419;28;20371;-23
2022/11/08 06:40:36;;;;;;;;;;;13.00;99.90;;;;;;5094118;28;19920;-23
2022/11/08 06:43:02;;;;;;;;;;;13.00;99.90;;;;;;5094000;28;19935;-23
2022/11/08 06:45:27;;;;;;;;;;;13.00;99.90;;;;;;5094173;28;19912;-23
2022/11/08 06:47:57;;;;;;;;;;;12.90;99.90;;;;;;5094213;28;19929;-22
2022/11/08 06:50:23;;;;;;;;;;;12.90;99.90;;;;;;5094373;28;20006;-23
2022/11/08 06:52:54;;;;;;;;;;;12.90;99.90;;;;;;5095557;28;20388;-23
2022/11/08 06:55:19;;;;;;;;;;;12.90;99.90;;;;;;5095865;28;19943;-23
2022/11/08 06:57:45;;;;;;;;;;;12.90;99.90;;;;;;5094305;28;19944;-23
2022/11/08 07:00:11;;;;;;;;;;;12.90;99.90;;;;;;5094203;28;19914;-23
2022/11/08 07:02:36;;;;;;;;;;;12.90;99.90;;;;;;5093555;28;19912;-23
2022/11/08 07:05:02;;;;;;;;;;;13.00;99.90;;;;;;5094018;28;20400;-23
2022/11/08 07:07:27;;;;;;;;;;;12.90;99.90;;;;;;5093827;28;20007;-23
2022/11/08 07:09:53;;;;;;;;;;;13.00;99.90;;;;;;5094253;28;20401;-23
2022/11/08 07:12:18;;;;;;;;;;;13.00;99.90;;;;;;5093817;28;20288;-23
2022/11/08 07:14:44;;;;;;;;;;;13.00;99.90;;;;;;5093766;28;19912;-23
2022/11/08 07:17:09;;;;;;;;;;;13.00;99.90;;;;;;5093561;28;19915;-23
2022/11/08 07:19:35;;;;;;;;;;;13.00;99.90;;;;;;5093620;28;20436;-23
2022/11/08 07:22:00;;;;;;;;;;;13.00;99.90;;;;;;5093552;28;19908;-23
2022/11/08 07:24:26;;;;;;;;;;;13.00;99.90;;;;;;5093064;28;19948;-23
2022/11/08 07:26:51;;;;;;;;;;;13.00;99.90;;;;;;5093606;28;19915;-23
2022/11/08 07:29:17;;;;;;;;;;;13.00;99.90;;;;;;5093259;28;20297;-23
2022/11/08 07:31:42;;;;;;;;;;;13.00;99.90;;;;;;5093331;28;19912;-23
2022/11/08 07:34:08;;;;;;;;;;;13.00;99.90;;;;;;5092908;28;19921;-23
2022/11/08 07:36:33;;;;;;;;;;;13.00;99.90;;;;;;5093357;28;19912;-23
2022/11/08 07:38:59;;;;;;;;;;;13.00;99.90;;;;;;5093369;28;19908;-23
2022/11/08 07:41:24;;;;;;;;;;;13.00;99.90;;;;;;5093124;28;19927;-23
2022/11/08 07:43:50;;;;;;;;;;;13.00;99.90;;;;;;5092898;28;20012;-22
2022/11/08 07:46:15;;;;;;;;;;;13.10;99.90;;;;;;5093135;28;19922;-22
2022/11/08 07:48:41;;;;;;;;;;;13.10;99.90;;;;;;5093185;28;20029;-22
2022/11/08 07:51:06;;;;;;;;;;;13.20;99.90;;;;;;5092932;28;19915;-23
2022/11/08 07:53:32;;;;;;;;;;;13.10;99.90;;;;;;5092335;28;19908;-23
2022/11/08 07:55:57;;;;;;;;;;;13.20;99.90;;;;;;5092669;28;20277;-23
2022/11/08 07:58:23;;;;;;;;;;;13.20;99.90;;;;;;5093273;28;19915;-23
2022/11/08 08:00:48;;;;;;;;;;;13.30;99.90;;;;;;5092730;28;20303;-23
2022/11/08 08:03:14;;;;;;;;;;;13.30;99.90;;;;;;5092514;28;19908;-23
2022/11/08 08:05:44;;;;;;;;;;;13.30;99.90;;;;;;5091407;28;19946;-22
2022/11/08 08:08:11;;;;;;;;;;;13.30;99.90;;;;;;5092586;28;20006;-23
2022/11/08 08:10:36;;;;;;;;;;;13.30;99.90;;;;;;5092474;28;19981;-22
2022/11/08 08:13:03;;;;;;;;;;;13.30;99.90;;;;;;5092127;28;19962;-22
2022/11/08 08:15:28;;;;;;;;;;;13.40;99.90;;;;;;5092395;28;19919;-23
2022/11/08 08:17:54;;;;;;;;;;;13.40;99.90;;;;;;5092385;28;19908;-23
2022/11/08 08:20:19;;;;;;;;;;;13.40;99.90;;;;;;5092495;28;19912;-23
2022/11/08 08:22:45;;;;;;;;;;;13.50;99.90;;;;;;5091877;28;19981;-23
2022/11/08 08:25:11;;;;;;;;;;;13.50;99.90;;;;;;5092378;28;20364;-23
2022/11/08 08:27:37;;;;;;;;;;;13.60;99.90;;;;;;5091878;28;19912;-22
2022/11/08 08:30:03;;;;;;;;;;;13.60;99.90;;;;;;5092134;28;20357;-23
2022/11/08 08:32:29;;;;;;;;;;;13.60;99.90;;;;;;5091811;28;19908;-23
2022/11/08 08:34:54;;;;;;;;;;;13.60;99.90;;;;;;5092285;28;20385;-22
2022/11/08 08:37:20;;;;;;;;;;;13.60;99.90;;;;;;5091722;28;19912;-22
2022/11/08 08:39:45;;;;;;;;;;;13.60;99.90;;;;;;5091994;28;19999;-23
2022/11/08 08:42:11;;;;;;;;;;;13.60;99.90;;;;;;5091961;28;20352;-22
2022/11/08 08:44:36;;;;;;;;;;;13.50;99.90;;;;;;5091565;28;20276;-23
2022/11/08 08:47:02;;;;;;;;;;;13.50;99.90;;;;;;5092424;28;19912;-22
2022/11/08 08:49:27;;;;;;;;;;;13.50;99.90;;;;;;5091850;28;19912;-22
2022/11/08 08:51:53;;;;;;;;;;;13.50;99.90;;;;;;5091671;28;19912;-23
2022/11/08 08:54:18;;;;;;;;;;;13.50;99.90;;;;;;5091419;28;19912;-22
2022/11/08 08:56:44;;;;;;;;;;;13.40;99.90;;;;;;5091999;28;20297;-23
2022/11/08 08:59:09;;;;;;;;;;;13.50;99.90;;;;;;5091477;28;19969;-22
2022/11/08 09:01:35;;;;;;;;;;;13.40;99.90;;;;;;5092061;28;20349;-22
2022/11/08 09:04:00;;;;;;;;;;;13.40;99.90;;;;;;5091296;28;19908;-22
2022/11/08 09:06:26;;;;;;;;;;;13.40;99.90;;;;;;5091703;28;19919;-22
2022/11/08 09:08:51;;;;;;;;;;;13.40;99.90;;;;;;5091227;28;20361;-23
2022/11/08 09:11:17;;;;;;;;;;;13.40;99.90;;;;;;5091338;28;19940;-23
2022/11/08 09:13:42;;;;;;;;;;;13.50;99.90;;;;;;5091090;28;19923;-23
2022/11/08 09:16:09;;;;;;;;;;;13.50;99.90;;;;;;5091476;28;20196;-23
2022/11/08 09:18:34;;;;;;;;;;;13.50;99.90;;;;;;5091682;28;20280;-23
2022/11/08 09:21:02;;;;;;;;;;;13.60;99.90;;;;;;5091129;28;20014;-22
2022/11/08 09:23:27;;;;;;;;;;;13.60;99.90;;;;;;5091079;28;19912;-23
2022/11/08 09:26:00;;;;;;;;;;;13.70;99.90;;;;;;5091335;28;20258;-22
2022/11/08 09:28:25;;;;;;;;;;;13.60;99.90;;;;;;5091727;28;19927;-23
2022/11/08 09:30:51;;;;;;;;;;;13.70;99.90;;;;;;5091290;28;19915;-22
2022/11/08 09:33:16;;;;;;;;;;;13.60;99.90;;;;;;5091088;28;20433;-23
2022/11/08 09:35:42;;;;;;;;;;;13.60;99.90;;;;;;5091877;28;19931;-23
2022/11/08 09:38:08;;;;;;;;;;;13.60;99.90;;;;;;5091050;28;19919;-23
2022/11/08 09:40:47;;;;;;;;;;;13.70;99.90;;;;;;5093387;28;19912;-23
2022/11/08 09:43:42;;;;;;;;;;;13.70;99.90;;;;;;5095012;28;19908;-23
2022/11/08 09:46:13;;;;;;;;;;;13.70;99.90;;;;;;5057570;28;19919;-23
2022/11/08 09:48:41;;;;;;;;;;;13.70;99.90;;;;;;5095473;28;20369;-23
2022/11/08 09:51:17;;;;;;;;;;;13.70;99.90;;;;;;5095306;28;19926;-22
2022/11/08 09:53:45;;;;;;;;;;;13.70;99.90;;;;;;5094954;28;19908;-22
2022/11/08 09:56:20;;;;;;;;;;;13.70;99.90;;;;;;5095256;28;19950;-22
2022/11/08 09:59:01;;;;;;;;;;;13.70;99.90;;;;;;5095106;28;19998;-22
2022/11/08 10:01:31;;;;;;;;;;;13.70;99.90;;;;;;5095033;28;19923;-23
2022/11/08 10:03:58;;;;;;;;;;;13.70;99.90;;;;;;5094779;28;19912;-23
2022/11/08 10:06:33;;;;;;;;;;;13.70;99.90;;;;;;5095633;28;19996;-23
2022/11/08 10:09:03;;;;;;;;;;;13.60;99.90;;;;;;5094822;28;19912;-23
2022/11/08 10:11:55;;;;;;;;;;;13.60;99.90;;;;;;5095115;28;19912;-23
2022/11/08 10:14:39;;;;;;;;;;;13.60;99.90;;;;;;5092353;28;19914;-23
2022/11/08 10:17:14;;;;;;;;;;;13.60;99.90;;;;;;5094958;28;19915;-23
2022/11/08 10:19:42;;;;;;;;;;;13.50;99.90;;;;;;5094679;28;19934;-23
2022/11/08 10:22:14;;;;;;;;;;;13.50;99.90;;;;;;5094789;28;19912;-22
2022/11/08 10:24:53;;;;;;;;;;;13.50;99.90;;;;;;5094549;28;19912;-23
2022/11/08 10:27:24;;;;;;;;;;;13.50;99.90;;;;;;5093532;28;19916;-23
2022/11/08 10:29:53;;;;;;;;;;;13.50;99.90;;;;;;5094385;28;19916;-23
2022/11/08 10:32:20;;;;;;;;;;;13.50;99.90;;;;;;5094665;28;19934;-22
2022/11/08 10:35:04;;;;;;;;;;;13.50;99.90;;;;;;5094436;28;19908;-22
2022/11/08 10:37:31;;;;;;;;;;;13.50;99.90;;;;;;5094591;28;20040;-23
2022/11/08 10:39:59;;;;;;;;;;;13.50;99.90;;;;;;5094296;28;19924;-23
2022/11/08 10:42:33;;;;;;;;;;;13.60;99.90;;;;;;5094025;28;20022;-23
2022/11/08 10:44:59;;;;;;;;;;;13.60;99.90;;;;;;5094527;28;19908;-23
2022/11/08 10:47:29;;;;;;;;;;;13.70;99.90;;;;;;5094120;28;19919;-23
2022/11/08 10:49:54;;;;;;;;;;;13.80;99.90;;;;;;5094570;28;19920;-23
2022/11/08 10:52:41;;;;;;;;;;;13.80;99.90;;;;;;5093784;28;19939;-23
2022/11/08 10:55:08;;;;;;;;;;;13.90;99.90;;;;;;5094281;28;19915;-23
2022/11/08 10:57:38;;;;;;;;;;;13.90;99.90;;;;;;5094201;28;19943;-23
2022/11/08 11:00:18;;;;;;;;;;;13.90;99.90;;;;;;5094002;28;19908;-23
2022/11/08 11:02:45;;;;;;;;;;;14.00;99.90;;;;;;5093566;28;19919;-23
2022/11/08 11:05:13;;;;;;;;;;;14.10;99.90;;;;;;5093917;28;20002;-23
2022/11/08 11:07:39;;;;;;;;;;;14.10;99.90;;;;;;5093820;28;19908;-23
2022/11/08 11:10:33;;;;;;;;;;;14.20;99.90;;;;;;5093560;28;20325;-23
2022/11/08 11:13:08;;;;;;;;;;;14.20;99.90;;;;;;5083994;28;19908;-23
2022/11/08 11:15:45;;;;;;;;;;;14.30;99.90;;;;;;5093710;28;20390;-23
2022/11/08 11:18:29;;;;;;;;;;;14.30;99.90;;;;;;5093889;28;19919;-22
2022/11/08 11:20:59;;;;;;;;;;;14.30;99.90;;;;;;5093566;28;20323;-22
2022/11/08 11:23:31;;;;;;;;;;;14.40;99.90;;;;;;5093354;28;20390;-22
2022/11/08 11:25:57;;;;;;;;;;;14.40;99.90;;;;;;5093503;28;19912;-22
2022/11/08 11:28:22;;;;;;;;;;;14.50;99.90;;;;;;5093495;28;19942;-22
2022/11/08 11:30:58;;;;;;;;;;;14.50;99.90;;;;;;5093401;28;19912;-23
2022/11/08 11:33:25;;;;;;;;;;;14.50;99.90;;;;;;5093074;28;19934;-23
2022/11/08 11:35:53;;;;;;;;;;;14.60;99.90;;;;;;5093448;28;19908;-22
2022/11/08 11:38:21;;;;;;;;;;;14.60;99.90;;;;;;5093277;28;19908;-23
2022/11/08 11:40:47;;;;;;;;;;;14.60;99.90;;;;;;5093019;28;20485;-23
2022/11/08 11:43:28;;;;;;;;;;;14.60;99.90;;;;;;5092969;28;20274;-22
2022/11/08 11:46:01;;;;;;;;;;;14.60;99.90;;;;;;5092978;28;19912;-23
2022/11/08 11:48:28;;;;;;;;;;;14.60;99.90;;;;;;5093238;28;19955;-22
2022/11/08 11:50:54;;;;;;;;;;;14.60;99.90;;;;;;5092841;28;19937;-23
2022/11/08 11:53:26;;;;;;;;;;;14.60;99.90;;;;;;5092886;28;19908;-23
2022/11/08 11:56:07;;;;;;;;;;;14.70;99.90;;;;;;5093151;28;19968;-23
2022/11/08 11:58:39;;;;;;;;;;;14.70;99.90;;;;;;5092823;28;19927;-23
2022/11/08 12:01:09;;;;;;;;;;;14.80;99.90;;;;;;5092996;28;19908;-23
2022/11/08 12:03:38;;;;;;;;;;;14.80;99.90;;;;;;5091332;28;19937;-23
2022/11/08 12:06:04;;;;;;;;;;;14.80;99.90;;;;;;5092738;28;19916;-23
2022/11/08 12:08:46;;;;;;;;;;;14.80;99.90;;;;;;5092758;28;20258;-23
2022/11/08 12:11:21;;;;;;;;;;;14.80;99.90;;;;;;5092633;28;19912;-23
2022/11/08 12:14:01;;;;;;;;;;;14.70;99.90;;;;;;5092120;28;20419;-24
2022/11/08 12:16:33;;;;;;;;;;;14.70;99.90;;;;;;5092530;28;20002;-23
2022/11/08 12:19:17;;;;;;;;;;;14.60;99.90;;;;;;5092552;28;19936;-23
2022/11/08 12:21:58;;;;;;;;;;;14.60;99.90;;;;;;5092347;28;19912;-23
2022/11/08 12:24:42;;;;;;;;;;;14.60;99.90;;;;;;5091851;28;19947;-23
2022/11/08 12:27:13;;;;;;;;;;;14.60;99.90;;;;;;5092478;28;19908;-23
2022/11/08 12:29:57;;;;;;;;;;;14.50;99.90;;;;;;5092266;28;19912;-24
2022/11/08 12:32:25;;;;;;;;;;;14.50;99.90;;;;;;5092030;28;19997;-23
2022/11/08 12:35:11;;;;;;;;;;;14.50;99.90;;;;;;5092279;28;20011;-24
2022/11/08 12:37:40;;;;;;;;;;;14.40;99.90;;;;;;5091998;28;19919;-23
2022/11/08 12:40:16;;;;;;;;;;;14.40;99.90;;;;;;5091987;28;19912;-23
2022/11/08 12:42:49;;;;;;;;;;;14.30;99.90;;;;;;5091700;28;19969;-23
2022/11/08 12:45:21;;;;;;;;;;;14.30;99.90;;;;;;5091954;28;20045;-23
2022/11/08 12:47:49;;;;;;;;;;;14.20;99.90;;;;;;5091953;28;20284;-23
2022/11/08 12:50:21;;;;;;;;;;;14.20;99.90;;;;;;5091756;28;20043;-23
2022/11/08 12:53:05;;;;;;;;;;;14.20;99.90;;;;;;5091799;28;20313;-23
2022/11/08 12:55:33;;;;;;;;;;;14.10;99.90;;;;;;5091803;28;19957;-23
2022/11/08 12:58:00;;;;;;;;;;;14.10;99.90;;;;;;5092033;28;19916;-23
2022/11/08 13:00:26;;;;;;;;;;;14.10;99.90;;;;;;5091860;28;19919;-23
2022/11/08 13:03:11;;;;;;;;;;;14.00;99.90;;;;;;5091530;28;19915;-23
2022/11/08 13:05:41;;;;;;;;;;;14.10;99.90;;;;;;5091783;28;19915;-23
2022/11/08 13:08:17;;;;;;;;;;;14.10;99.90;;;;;;5091500;28;19977;-23
2022/11/08 13:10:48;;;;;;;;;;;14.20;99.90;;;;;;5091562;28;20366;-23
2022/11/08 13:13:32;;;;;;;;;;;14.20;99.90;;;;;;5091239;28;19915;-23
2022/11/08 13:16:06;;;;;;;;;;;14.30;99.90;;;;;;5091651;28;19931;-23
2022/11/08 13:18:32;;;;;;;;;;;14.30;99.90;;;;;;5091579;28;20371;-23
2022/11/08 13:20:58;;;;;;;;;;;14.30;99.90;;;;;;5091581;28;19916;-23
2022/11/08 13:23:28;;;;;;;;;;;14.30;99.90;;;;;;5091147;28;19915;-23
2022/11/08 13:25:54;;;;;;;;;;;14.20;99.90;;;;;;5091651;28;19909;-23
2022/11/08 13:28:34;;;;;;;;;;;14.20;99.90;;;;;;5091543;28;19915;-24
2022/11/08 13:31:06;;;;;;;;;;;14.20;99.90;;;;;;5091753;28;20377;-23
2022/11/08 13:33:33;;;;;;;;;;;14.20;99.90;;;;;;5091106;28;19977;-24
2022/11/08 13:36:14;;;;;;;;;;;14.20;99.90;;;;;;5090226;28;19958;-23
2022/11/08 13:38:59;;;;;;;;;;;14.10;99.90;;;;;;5091653;28;19908;-23
2022/11/08 13:41:24;;;;;;;;;;;14.10;99.90;;;;;;5091074;28;19923;-23
2022/11/08 13:43:52;;;;;;;;;;;14.00;99.90;;;;;;5091909;28;19908;-23
2022/11/08 13:46:26;;;;;;;;;;;14.10;99.90;;;;;;5094513;28;19908;-23
2022/11/08 13:49:02;;;;;;;;;;;14.00;99.90;;;;;;5091362;28;20058;-23
2022/11/08 13:51:37;;;;;;;;;;;14.00;99.90;;;;;;5091359;28;20011;-23
2022/11/08 13:54:04;;;;;;;;;;;14.00;99.90;;;;;;5090830;28;19915;-23
2022/11/08 13:56:48;;;;;;;;;;;14.00;99.90;;;;;;5091356;28;19912;-23
2022/11/08 13:59:29;;;;;;;;;;;14.10;99.90;;;;;;5092230;28;20379;-23
2022/11/08 14:01:59;;;;;;;;;;;14.00;99.90;;;;;;5091220;28;19919;-23
2022/11/08 14:04:26;;;;;;;;;;;14.00;99.90;;;;;;5090763;28;19912;-24
2022/11/08 14:07:14;;;;;;;;;;;14.00;99.90;;;;;;5091208;28;19908;-23
2022/11/08 14:09:58;;;;;;;;;;;14.00;99.90;;;;;;5091083;28;19919;-23
2022/11/08 14:12:44;;;;;;;;;;;14.00;99.90;;;;;;5090879;28;20017;-23
2022/11/08 14:15:28;;;;;;;;;;;13.90;99.90;;;;;;5090635;28;19915;-23
2022/11/08 14:18:03;;;;;;;;;;;13.90;99.90;;;;;;5090922;28;20320;-23
2022/11/08 14:20:38;;;;;;;;;;;13.90;99.90;;;;;;5090934;28;19977;-23
2022/11/08 14:23:23;;;;;;;;;;;13.90;99.90;;;;;;5090450;28;20309;-23
2022/11/08 14:26:07;;;;;;;;;;;13.90;99.90;;;;;;5091963;28;19908;-24
2022/11/08 14:28:34;;;;;;;;;;;13.90;99.90;;;;;;5094642;28;19930;-23
2022/11/08 14:31:01;;;;;;;;;;;13.90;99.90;;;;;;5094539;28;19919;-23
2022/11/08 14:33:31;;;;;;;;;;;13.90;99.90;;;;;;5094159;28;19916;-23
2022/11/08 14:36:01;;;;;;;;;;;13.90;99.90;;;;;;5094713;28;20278;-23
2022/11/08 14:38:27;;;;;;;;;;;13.90;99.90;;;;;;5094413;28;19916;-23
2022/11/08 14:40:54;;;;;;;;;;;13.90;99.90;;;;;;5094386;28;20370;-23
2022/11/08 14:43:21;;;;;;;;;;;13.90;99.90;;;;;;5094073;28;19908;-23
2022/11/08 14:45:46;;;;;;;;;;;13.90;99.90;;;;;;5094321;28;20361;-23
2022/11/08 14:48:16;;;;;;;;;;;13.90;99.90;;;;;;5094147;28;19954;-23
2022/11/08 14:50:42;;;;;;;;;;;13.90;99.90;;;;;;5094159;28;19955;-23
2022/11/08 14:53:19;;;;;;;;;;;13.90;99.90;;;;;;5093828;28;19939;-23
2022/11/08 14:55:45;;;;;;;;;;;13.90;99.90;;;;;;5094093;28;19915;-23
2022/11/08 14:58:14;;;;;;;;;;;13.90;99.90;;;;;;5094128;28;19908;-23
2022/11/08 15:00:41;;;;;;;;;;;13.90;99.90;;;;;;5093878;28;19912;-23
2022/11/08 15:03:12;;;;;;;;;;;13.90;99.90;;;;;;5093600;28;19912;-23
2022/11/08 15:05:39;;;;;;;;;;;13.90;99.90;;;;;;5094022;28;20285;-23
2022/11/08 15:08:06;;;;;;;;;;;13.90;99.90;;;;;;5093906;28;20346;-23
2022/11/08 15:10:32;;;;;;;;;;;13.90;99.90;;;;;;5093888;28;19912;-23
2022/11/08 15:12:58;;;;;;;;;;;13.90;99.90;;;;;;5093286;28;19908;-24
2022/11/08 15:15:25;;;;;;;;;;;13.90;99.90;;;;;;5093996;28;20393;-23
2022/11/08 15:18:09;;;;;;;;;;;13.90;99.90;;;;;;5093764;28;19908;-23
2022/11/08 15:20:34;;;;;;;;;;;13.90;99.90;;;;;;5093774;28;20031;-23
2022/11/08 15:23:00;;;;;;;;;;;13.90;99.90;;;;;;5093199;28;19947;-23
2022/11/08 15:25:33;;;;;;;;;;;13.90;99.90;;;;;;5093507;28;19908;-23
2022/11/08 15:28:15;;;;;;;;;;;13.80;99.90;;;;;;5093530;28;19946;-23
2022/11/08 15:30:41;;;;;;;;;;;13.90;99.90;;;;;;5093366;28;19912;-23
2022/11/08 15:33:22;;;;;;;;;;;13.80;99.90;;;;;;5093307;28;19986;-23
2022/11/08 15:35:48;;;;;;;;;;;13.80;99.90;;;;;;5093413;28;20370;-23
2022/11/08 15:38:20;;;;;;;;;;;13.80;99.90;;;;;;5092058;28;19919;-23
2022/11/08 15:40:49;;;;;;;;;;;13.90;99.90;;;;;;5093628;28;19919;-23
2022/11/08 15:43:30;;;;;;;;;;;13.90;99.90;;;;;;5093166;28;19915;-23
2022/11/08 15:45:56;;;;;;;;;;;13.90;99.90;;;;;;5093406;28;20339;-23
2022/11/08 15:48:22;;;;;;;;;;;13.90;99.90;;;;;;5093508;28;19908;-23
2022/11/08 15:50:48;;;;;;;;;;;13.90;99.90;;;;;;5093057;28;20016;-23
2022/11/08 15:53:14;;;;;;;;;;;13.90;99.90;;;;;;5092828;28;19922;-23
2022/11/08 15:55:47;;;;;;;;;;;13.90;99.90;;;;;;5091728;28;19908;-23
2022/11/08 15:58:14;;;;;;;;;;;13.90;99.90;;;;;;5092935;28;19908;-23
2022/11/08 16:00:43;;;;;;;;;;;13.90;99.90;;;;;;5092933;28;19908;-23
2022/11/08 16:03:09;;;;;;;;;;;13.90;99.90;;;;;;5092372;28;19991;-23
2022/11/08 16:05:34;;;;;;;;;;;13.90;99.90;;;;;;5092998;28;19912;-23
2022/11/08 16:08:00;;;;;;;;;;;13.90;99.90;;;;;;5092759;28;19908;-23
2022/11/08 16:10:28;;;;;;;;;;;13.90;99.90;;;;;;5092892;28;19912;-23
2022/11/08 16:12:54;;;;;;;;;;;13.90;99.90;;;;;;5092697;28;20077;-23
2022/11/08 16:15:22;;;;;;;;;;;13.90;99.90;;;;;;5092738;28;19994;-23
2022/11/08 16:17:48;;;;;;;;;;;13.90;99.90;;;;;;5092578;28;19912;-23
2022/11/08 16:20:18;;;;;;;;;;;13.90;99.90;;;;;;5092447;28;19908;-23
2022/11/08 16:22:44;;;;;;;;;;;13.90;99.90;;;;;;5092260;28;19915;-23
2022/11/08 16:25:10;;;;;;;;;;;13.90;99.90;;;;;;5092483;28;19934;-23
2022/11/08 16:27:35;;;;;;;;;;;13.90;99.90;;;;;;5092250;28;19912;-23
2022/11/08 16:30:01;;;;;;;;;;;13.90;99.90;;;;;;5092113;28;19915;-23
2022/11/08 16:32:27;;;;;;;;;;;13.90;99.90;;;;;;5092159;28;20007;-23
2022/11/08 16:34:52;;;;;;;;;;;13.90;99.90;;;;;;5092246;28;19912;-23
2022/11/08 16:37:18;;;;;;;;;;;13.90;99.90;;;;;;5092188;28;19950;-23
2022/11/08 16:39:46;;;;;;;;;;;13.90;99.90;;;;;;5092195;28;19926;-23
2022/11/08 16:42:11;;;;;;;;;;;13.90;99.90;;;;;;5091941;28;19922;-23
2022/11/08 16:44:38;;;;;;;;;;;13.90;99.90;;;;;;5091454;28;19912;-23
2022/11/08 16:47:03;;;;;;;;;;;13.90;99.90;;;;;;5092119;28;19916;-23
2022/11/08 16:49:31;;;;;;;;;;;13.90;99.90;;;;;;5091316;28;20061;-23
2022/11/08 16:51:56;;;;;;;;;;;13.90;99.90;;;;;;5091821;28;20267;-23
2022/11/08 16:54:27;;;;;;;;;;;13.90;99.90;;;;;;5091576;28;19965;-23
2022/11/08 16:56:55;;;;;;;;;;;13.90;99.90;;;;;;5092013;28;19956;-23
2022/11/08 16:59:21;;;;;;;;;;;13.90;99.90;;;;;;5091748;28;20270;-23
2022/11/08 17:01:47;;;;;;;;;;;13.90;99.90;;;;;;5091775;28;19919;-23
2022/11/08 17:04:13;;;;;;;;;;;13.90;99.90;;;;;;5091310;28;19938;-23
2022/11/08 17:06:38;;;;;;;;;;;13.90;99.90;;;;;;5091842;28;19908;-23
2022/11/08 17:09:04;;;;;;;;;;;13.90;99.90;;;;;;5092222;28;20508;-23
2022/11/08 17:11:29;;;;;;;;;;;13.90;99.90;;;;;;5091790;28;19912;-23
2022/11/08 17:13:55;;;;;;;;;;;13.90;99.90;;;;;;5091205;28;19912;-23
2022/11/08 17:16:21;;;;;;;;;;;13.90;99.90;;;;;;5091840;28;20358;-23
2022/11/08 17:18:46;;;;;;;;;;;13.90;99.90;;;;;;5091742;28;19920;-23
2022/11/08 17:21:13;;;;;;;;;;;13.90;99.90;;;;;;5091690;28;19978;-23
2022/11/08 17:23:38;;;;;;;;;;;13.90;99.90;;;;;;5091109;28;20396;-23
2022/11/08 17:26:05;;;;;;;;;;;13.90;99.90;;;;;;5091860;28;19908;-24
2022/11/08 17:28:30;;;;;;;;;;;13.90;99.90;;;;;;5091387;28;19908;-23
2022/11/08 17:30:56;;;;;;;;;;;14.00;99.90;;;;;;5091372;28;19923;-23
2022/11/08 17:33:21;;;;;;;;;;;13.90;99.90;;;;;;5091019;28;19908;-24
2022/11/08 17:35:47;;;;;;;;;;;14.00;99.90;;;;;;5091545;28;20289;-23
2022/11/08 17:38:12;;;;;;;;;;;13.90;99.90;;;;;;5091457;28;20021;-24
2022/11/08 17:40:38;;;;;;;;;;;14.00;99.90;;;;;;5091404;28;19923;-24
2022/11/08 17:43:03;;;;;;;;;;;14.00;99.90;;;;;;5090927;28;20224;-23
2022/11/08 17:45:29;;;;;;;;;;;14.00;99.90;;;;;;5091549;28;19908;-24
2022/11/08 17:47:55;;;;;;;;;;;14.00;99.90;;;;;;5091535;28;19912;-23
2022/11/08 17:50:20;;;;;;;;;;;14.00;99.90;;;;;;5091331;28;19916;-24
2022/11/08 17:52:46;;;;;;;;;;;14.00;99.90;;;;;;5090973;28;19920;-24
2022/11/08 17:55:11;;;;;;;;;;;14.00;99.90;;;;;;5091541;28;20036;-24
2022/11/08 17:57:37;;;;;;;;;;;14.00;99.90;;;;;;5091932;28;19916;-23
2022/11/08 18:00:03;;;;;;;;;;;14.00;99.90;;;;;;5091558;28;20404;-23
2022/11/08 18:02:28;;;;;;;;;;;14.00;99.90;;;;;;5094575;28;19908;-23
2022/11/08 18:04:55;;;;;;;;;;;14.00;99.90;;;;;;5095552;28;20281;-23
2022/11/08 18:07:21;;;;;;;;;;;14.00;99.90;;;;;;5093918;28;20336;-24
2022/11/08 18:09:47;;;;;;;;;;;14.00;99.90;;;;;;5095199;28;20380;-23
2022/11/08 18:12:12;;;;;;;;;;;13.90;99.90;;;;;;5095049;28;19912;-23
2022/11/08 18:14:38;;;;;;;;;;;14.00;99.90;;;;;;5094866;28;20277;-24
2022/11/08 18:17:03;;;;;;;;;;;14.00;99.90;;;;;;5095169;28;19919;-24
2022/11/08 18:19:29;;;;;;;;;;;14.00;99.90;;;;;;5095126;28;19915;-24
2022/11/08 18:21:54;;;;;;;;;;;14.00;99.90;;;;;;5095027;28;20417;-23
2022/11/08 18:24:20;;;;;;;;;;;14.00;99.90;;;;;;5094503;28;20362;-24
2022/11/08 18:26:45;;;;;;;;;;;14.00;99.90;;;;;;5094868;28;19919;-24
2022/11/08 18:29:11;;;;;;;;;;;14.00;99.90;;;;;;5094821;28;19919;-24
2022/11/08 18:31:37;;;;;;;;;;;14.00;99.90;;;;;;5094769;28;19919;-24
2022/11/08 18:34:03;;;;;;;;;;;14.00;99.90;;;;;;5094296;28;20420;-23
2022/11/08 18:36:29;;;;;;;;;;;14.00;99.90;;;;;;5094685;28;19915;-23
2022/11/08 18:38:57;;;;;;;;;;;14.00;99.90;;;;;;5094842;28;19912;-24
2022/11/08 18:41:27;;;;;;;;;;;14.00;99.90;;;;;;5094298;28;19923;-24